Time;durP1;ratioP1;P1;durP2;ratioP2;P2;SDS_P1;SDS_P2;PMS_P1;PMS_P2;Temp;Humidity;BMP_temperature;BMP_pressure;BME280_temperature;BME280_humidity;BME280_pressure;Samples;Min_cycle;Max_cycle;Signal;HPM_P1;HPM_P2
2022/07/29 00:01:35;;;;;;;2.57;2.37;;;18.80;99.90;;;;;;493302;241;28874;-71
2022/07/29 00:03:36;;;;;;;2.40;2.30;;;18.80;99.90;;;;;;493294;241;28673;-68
2022/07/29 00:05:38;;;;;;;2.43;2.33;;;18.70;99.90;;;;;;493250;241;28794;-69
2022/07/29 00:07:39;;;;;;;2.33;2.23;;;18.70;99.90;;;;;;493132;241;28670;-68
2022/07/29 00:09:40;;;;;;;5.50;2.50;;;18.60;99.90;;;;;;493278;241;28727;-68
2022/07/29 00:11:41;;;;;;;2.80;2.63;;;18.60;99.90;;;;;;493307;241;28743;-72
2022/07/29 00:13:43;;;;;;;2.97;2.77;;;18.50;99.90;;;;;;493304;241;28715;-68
2022/07/29 00:15:44;;;;;;;2.40;2.30;;;18.50;99.90;;;;;;493291;241;28737;-69
2022/07/29 00:17:45;;;;;;;2.50;2.30;;;18.50;99.90;;;;;;493148;241;28675;-67
2022/07/29 00:19:46;;;;;;;2.37;2.20;;;18.40;99.90;;;;;;492986;241;29164;-68
2022/07/29 00:21:48;;;;;;;2.20;2.10;;;18.30;99.90;;;;;;493122;241;29183;-72
2022/07/29 00:23:49;;;;;;;2.47;2.30;;;18.20;99.90;;;;;;493162;241;29125;-68
2022/07/29 00:25:50;;;;;;;2.50;2.40;;;18.10;99.90;;;;;;493253;241;29211;-68
2022/07/29 00:27:51;;;;;;;2.77;2.57;;;18.10;99.90;;;;;;493192;241;28763;-68
2022/07/29 00:29:53;;;;;;;2.50;2.37;;;18.00;99.90;;;;;;493297;241;28737;-67
2022/07/29 00:31:54;;;;;;;2.70;2.50;;;17.90;99.90;;;;;;493273;241;28809;-70
2022/07/29 00:33:55;;;;;;;3.00;2.23;;;17.90;99.90;;;;;;493259;241;28668;-68
2022/07/29 00:35:56;;;;;;;2.53;2.43;;;17.90;99.90;;;;;;493142;241;28793;-69
2022/07/29 00:37:58;;;;;;;3.33;2.27;;;17.80;99.90;;;;;;493179;241;28765;-68
2022/07/29 00:39:59;;;;;;;2.70;2.50;;;17.80;99.90;;;;;;493281;241;28688;-69
2022/07/29 00:42:00;;;;;;;2.53;2.33;;;17.80;99.90;;;;;;493272;241;28720;-70
2022/07/29 00:44:01;;;;;;;2.67;2.47;;;17.80;99.90;;;;;;493265;241;29124;-69
2022/07/29 00:46:03;;;;;;;2.97;2.60;;;17.80;99.90;;;;;;493205;241;29199;-74
2022/07/29 00:48:04;;;;;;;2.67;2.47;;;17.80;99.90;;;;;;493238;241;29206;-68
2022/07/29 00:50:05;;;;;;;2.30;2.10;;;17.70;99.90;;;;;;493268;241;29214;-68
2022/07/29 00:52:06;;;;;;;2.30;2.20;;;17.60;99.90;;;;;;493269;241;28707;-70
2022/07/29 00:54:08;;;;;;;2.90;2.70;;;17.50;99.90;;;;;;493269;241;28675;-68
2022/07/29 00:56:09;;;;;;;3.00;2.63;;;17.40;99.90;;;;;;493149;241;28796;-68
2022/07/29 00:58:10;;;;;;;2.53;2.30;;;17.30;99.90;;;;;;493236;241;28783;-67
2022/07/29 01:00:11;;;;;;;2.87;2.57;;;17.30;99.90;;;;;;493276;241;28728;-68
2022/07/29 01:02:13;;;;;;;2.60;2.40;;;17.30;99.90;;;;;;493175;241;28736;-70
2022/07/29 01:04:14;;;;;;;2.50;2.40;;;17.30;99.90;;;;;;493185;241;28752;-68
2022/07/29 01:06:15;;;;;;;2.93;2.70;;;17.30;99.90;;;;;;493184;241;28721;-68
2022/07/29 01:08:16;;;;;;;2.83;2.63;;;17.30;99.90;;;;;;493254;241;28695;-68
2022/07/29 01:10:18;;;;;;;2.63;2.43;;;17.20;99.90;;;;;;493266;241;29232;-68
2022/07/29 01:12:19;;;;;;;2.97;2.77;;;17.10;99.90;;;;;;493270;241;29222;-70
2022/07/29 01:14:20;;;;;;;2.63;2.43;;;17.10;99.90;;;;;;493266;241;29282;-68
2022/07/29 01:16:21;;;;;;;2.30;2.20;;;17.00;99.90;;;;;;493158;241;28707;-68
2022/07/29 01:18:23;;;;;;;2.50;2.40;;;17.00;99.90;;;;;;493244;241;28660;-68
2022/07/29 01:20:24;;;;;;;2.43;2.30;;;17.00;99.90;;;;;;493299;241;28664;-68
2022/07/29 01:22:25;;;;;;;4.50;2.87;;;17.10;99.90;;;;;;493286;241;28770;-71
2022/07/29 01:24:26;;;;;;;2.40;2.30;;;17.20;99.90;;;;;;493265;241;28762;-68
2022/07/29 01:26:28;;;;;;;3.10;2.67;;;17.20;99.90;;;;;;493184;241;28755;-69
2022/07/29 01:28:29;;;;;;;3.90;2.97;;;17.10;99.90;;;;;;493257;241;28769;-68
2022/07/29 01:30:30;;;;;;;2.70;2.50;;;17.20;99.90;;;;;;493283;241;28721;-69
2022/07/29 01:32:31;;;;;;;2.60;2.40;;;17.20;99.90;;;;;;493252;241;28703;-71
2022/07/29 01:34:33;;;;;;;2.57;2.47;;;17.30;99.90;;;;;;493233;241;29171;-68
2022/07/29 01:36:34;;;;;;;2.70;2.50;;;17.30;99.90;;;;;;493090;241;29211;-68
2022/07/29 01:38:35;;;;;;;2.60;2.40;;;17.30;99.90;;;;;;493227;241;30977;-68
2022/07/29 01:40:36;;;;;;;2.87;2.67;;;17.30;99.90;;;;;;493284;241;29119;-68
2022/07/29 01:42:38;;;;;;;2.30;2.20;;;17.30;99.90;;;;;;493271;241;28695;-69
2022/07/29 01:44:39;;;;;;;2.63;2.43;;;17.00;99.90;;;;;;493248;241;28669;-68
2022/07/29 01:46:40;;;;;;;2.50;2.30;;;16.60;99.90;;;;;;493186;241;28700;-68
2022/07/29 01:48:42;;;;;;;2.80;2.60;;;16.60;99.90;;;;;;493262;241;28747;-72
2022/07/29 01:50:43;;;;;;;3.10;2.70;;;16.60;99.90;;;;;;493298;241;28756;-68
2022/07/29 01:52:44;;;;;;;2.77;2.67;;;16.60;99.90;;;;;;493279;241;28766;-68
2022/07/29 01:54:45;;;;;;;4.13;2.90;;;16.70;99.90;;;;;;493279;241;28685;-68
2022/07/29 01:56:47;;;;;;;2.40;2.30;;;16.80;99.90;;;;;;493226;241;28678;-68
2022/07/29 01:58:48;;;;;;;2.53;2.40;;;16.70;99.90;;;;;;493278;241;28710;-70
2022/07/29 02:00:49;;;;;;;2.90;2.70;;;16.50;99.90;;;;;;493269;241;28685;-67
2022/07/29 02:02:50;;;;;;;2.80;2.60;;;16.40;99.90;;;;;;493232;241;28701;-69
2022/07/29 02:04:52;;;;;;;2.87;2.67;;;16.10;99.90;;;;;;493260;241;29735;-68
2022/07/29 02:06:53;;;;;;;2.90;2.70;;;16.00;99.90;;;;;;493228;241;29151;-68
2022/07/29 02:08:54;;;;;;;2.97;2.77;;;15.90;99.90;;;;;;493277;241;29286;-70
2022/07/29 02:10:55;;;;;;;3.27;2.97;;;15.90;99.90;;;;;;493246;241;28788;-67
2022/07/29 02:12:57;;;;;;;4.33;2.70;;;15.90;99.90;;;;;;493214;241;28710;-68
2022/07/29 02:14:58;;;;;;;2.60;2.40;;;16.10;99.90;;;;;;493282;241;28725;-71
2022/07/29 02:16:59;;;;;;;3.37;3.07;;;16.20;99.90;;;;;;493215;241;28676;-68
2022/07/29 02:19:00;;;;;;;3.00;2.80;;;16.40;99.90;;;;;;493240;241;28798;-69
2022/07/29 02:21:02;;;;;;;2.90;2.80;;;16.50;99.90;;;;;;493247;241;28684;-68
2022/07/29 02:23:03;;;;;;;2.77;2.57;;;16.60;99.90;;;;;;493266;241;28673;-69
2022/07/29 02:25:04;;;;;;;2.80;2.60;;;16.60;99.90;;;;;;493267;241;28788;-71
2022/07/29 02:27:06;;;;;;;2.47;2.37;;;16.40;99.90;;;;;;493173;241;28680;-68
2022/07/29 02:29:07;;;;;;;3.10;2.77;;;16.00;99.90;;;;;;493246;241;28723;-69
2022/07/29 02:31:08;;;;;;;3.33;3.03;;;15.90;99.90;;;;;;493237;241;28755;-68
2022/07/29 02:33:09;;;;;;;3.17;2.97;;;15.80;99.90;;;;;;493239;241;28682;-68
2022/07/29 02:35:11;;;;;;;2.90;2.70;;;15.70;99.90;;;;;;493176;241;28720;-71
2022/07/29 02:37:12;;;;;;;2.70;2.50;;;15.60;99.90;;;;;;493181;241;29140;-68
2022/07/29 02:39:14;;;;;;;2.67;2.50;;;15.60;99.90;;;;;;493247;241;29157;-68
2022/07/29 02:41:14;;;;;;;3.13;2.93;;;15.70;99.90;;;;;;493227;241;29130;-68
2022/07/29 02:43:16;;;;;;;3.00;2.70;;;15.80;99.90;;;;;;493244;241;28828;-68
2022/07/29 02:45:17;;;;;;;3.00;2.80;;;15.70;99.90;;;;;;493249;241;28798;-71
2022/07/29 02:47:19;;;;;;;3.23;2.93;;;15.70;99.90;;;;;;493189;241;28684;-68
2022/07/29 02:49:19;;;;;;;3.23;3.03;;;15.80;99.90;;;;;;493254;241;28708;-68
2022/07/29 02:51:21;;;;;;;3.03;2.83;;;15.80;99.90;;;;;;493231;241;28803;-68
2022/07/29 02:53:22;;;;;;;3.03;2.83;;;15.80;99.90;;;;;;493255;241;28684;-68
2022/07/29 02:55:23;;;;;;;2.90;2.70;;;15.70;99.90;;;;;;493264;241;28711;-71
2022/07/29 02:57:24;;;;;;;3.73;3.43;;;15.70;99.90;;;;;;493114;241;28755;-68
2022/07/29 02:59:26;;;;;;;3.20;3.00;;;15.70;99.90;;;;;;493248;241;28811;-69
2022/07/29 03:01:28;;;;;;;3.30;3.10;;;15.70;99.90;;;;;;493230;241;29329;-68
2022/07/29 03:03:28;;;;;;;3.57;3.23;;;15.80;99.90;;;;;;493199;241;29113;-68
2022/07/29 03:05:29;;;;;;;3.23;3.03;;;15.80;99.90;;;;;;493260;241;29283;-70
2022/07/29 03:07:31;;;;;;;3.17;2.97;;;15.80;99.90;;;;;;493167;241;29170;-67
2022/07/29 03:09:32;;;;;;;3.40;3.20;;;15.80;99.90;;;;;;493219;241;28700;-68
2022/07/29 03:11:33;;;;;;;3.10;2.90;;;15.80;99.90;;;;;;493228;241;28702;-67
2022/07/29 03:13:34;;;;;;;3.00;2.80;;;15.80;99.90;;;;;;493270;241;28658;-68
2022/07/29 03:15:36;;;;;;;2.90;2.70;;;15.80;99.90;;;;;;493259;241;28707;-70
2022/07/29 03:17:37;;;;;;;3.17;2.77;;;15.80;99.90;;;;;;493159;241;28763;-68
2022/07/29 03:19:38;;;;;;;3.30;3.00;;;15.80;99.90;;;;;;493236;241;28792;-70
2022/07/29 03:21:39;;;;;;;3.27;2.73;;;15.70;99.90;;;;;;493270;241;28939;-71
2022/07/29 03:23:41;;;;;;;3.97;3.30;;;15.70;99.90;;;;;;493252;241;28723;-68
2022/07/29 03:25:42;;;;;;;3.63;3.33;;;15.60;99.90;;;;;;493239;241;28748;-71
2022/07/29 03:27:43;;;;;;;6.40;3.20;;;15.60;99.90;;;;;;493120;241;29330;-68
2022/07/29 03:29:44;;;;;;;3.53;3.33;;;15.70;99.90;;;;;;493233;241;29294;-68
2022/07/29 03:31:46;;;;;;;3.07;2.87;;;15.70;99.90;;;;;;493261;241;29220;-71
2022/07/29 03:33:47;;;;;;;2.93;2.73;;;15.70;99.90;;;;;;493261;241;28668;-68
2022/07/29 03:35:48;;;;;;;2.93;2.80;;;15.70;99.90;;;;;;493165;241;28701;-69
2022/07/29 03:37:49;;;;;;;3.33;3.03;;;15.70;99.90;;;;;;493163;241;28700;-69
2022/07/29 03:39:51;;;;;;;3.07;2.87;;;15.70;99.90;;;;;;493223;241;28724;-68
2022/07/29 03:41:52;;;;;;;2.80;2.60;;;15.70;99.90;;;;;;493273;241;28697;-73
2022/07/29 03:43:53;;;;;;;2.80;2.60;;;15.60;99.90;;;;;;493272;241;28688;-68
2022/07/29 03:45:54;;;;;;;2.63;2.43;;;15.70;99.90;;;;;;493256;241;28707;-68
2022/07/29 03:47:56;;;;;;;3.00;2.70;;;15.60;99.90;;;;;;493218;241;28710;-68
2022/07/29 03:49:57;;;;;;;2.97;2.77;;;15.60;99.90;;;;;;493284;241;28696;-68
2022/07/29 03:51:58;;;;;;;2.93;2.73;;;15.60;99.90;;;;;;493313;241;29280;-72
2022/07/29 03:53:59;;;;;;;2.80;2.60;;;15.60;99.90;;;;;;493284;241;29136;-68
2022/07/29 03:56:01;;;;;;;2.60;2.50;;;15.50;99.90;;;;;;493208;241;29305;-72
2022/07/29 03:58:02;;;;;;;2.87;2.67;;;15.40;99.90;;;;;;493183;241;28681;-68
2022/07/29 04:00:04;;;;;;;2.50;2.40;;;15.30;99.90;;;;;;493231;241;28744;-68
2022/07/29 04:02:05;;;;;;;2.60;2.40;;;15.30;99.90;;;;;;493274;241;29266;-69
2022/07/29 04:04:06;;;;;;;2.30;2.20;;;15.30;99.90;;;;;;493253;241;28826;-68
2022/07/29 04:06:07;;;;;;;2.30;2.20;;;15.40;99.90;;;;;;493203;241;28722;-73
2022/07/29 04:08:08;;;;;;;4.20;2.47;;;15.40;99.90;;;;;;493238;241;28675;-67
2022/07/29 04:10:09;;;;;;;2.60;2.40;;;15.40;99.90;;;;;;493246;241;28771;-68
2022/07/29 04:12:12;;;;;;;3.10;2.90;;;15.40;99.90;;;;;;493294;241;28712;-72
2022/07/29 04:14:13;;;;;;;2.43;2.27;;;15.40;99.90;;;;;;493259;241;28807;-68
2022/07/29 04:16:15;;;;;;;2.90;2.70;;;15.30;99.90;;;;;;493104;241;28675;-68
2022/07/29 04:18:16;;;;;;;3.37;2.70;;;15.20;99.90;;;;;;493295;241;29157;-68
2022/07/29 04:20:18;;;;;;;2.63;2.53;;;15.20;99.90;;;;;;493270;241;29300;-72
2022/07/29 04:22:18;;;;;;;3.30;3.07;;;15.20;99.90;;;;;;493243;241;29120;-68
2022/07/29 04:24:20;;;;;;;3.00;2.80;;;15.10;99.90;;;;;;493261;241;29335;-68
2022/07/29 04:26:21;;;;;;;3.07;2.83;;;15.20;99.90;;;;;;493206;241;29149;-67
2022/07/29 04:28:22;;;;;;;2.83;2.70;;;15.10;99.90;;;;;;493267;241;28700;-68
2022/07/29 04:30:23;;;;;;;2.80;2.70;;;15.00;99.90;;;;;;493242;241;28810;-73
2022/07/29 04:32:25;;;;;;;3.00;2.80;;;15.00;99.90;;;;;;493268;241;28672;-68
2022/07/29 04:34:26;;;;;;;3.70;3.43;;;14.90;99.90;;;;;;493250;241;28734;-69
2022/07/29 04:36:27;;;;;;;3.50;3.30;;;14.80;99.90;;;;;;493010;241;28685;-68
2022/07/29 04:38:28;;;;;;;3.43;3.20;;;14.80;99.90;;;;;;493277;241;28775;-68
2022/07/29 04:40:30;;;;;;;3.63;3.30;;;14.90;99.90;;;;;;493276;241;28713;-70
2022/07/29 04:42:31;;;;;;;3.40;3.20;;;15.10;99.90;;;;;;493257;241;28716;-68
2022/07/29 04:44:32;;;;;;;3.60;3.30;;;15.20;99.90;;;;;;493230;240;29279;-68
2022/07/29 04:46:33;;;;;;;3.50;3.20;;;15.30;99.90;;;;;;493171;241;30095;-68
2022/07/29 04:48:35;;;;;;;4.00;3.70;;;15.40;99.90;;;;;;493291;241;29123;-69
2022/07/29 04:50:36;;;;;;;3.20;3.00;;;15.50;99.90;;;;;;493285;241;28697;-70
2022/07/29 04:52:37;;;;;;;3.40;3.10;;;15.60;99.90;;;;;;493258;241;28741;-68
2022/07/29 04:54:38;;;;;;;3.37;2.90;;;15.70;99.90;;;;;;493267;241;28741;-69
2022/07/29 04:56:40;;;;;;;3.47;3.17;;;15.70;99.90;;;;;;493234;241;28660;-68
2022/07/29 04:58:41;;;;;;;3.80;3.50;;;15.80;99.90;;;;;;493255;241;28782;-67
2022/07/29 05:00:42;;;;;;;3.20;3.00;;;15.80;99.90;;;;;;493256;241;28713;-71
2022/07/29 05:02:43;;;;;;;3.77;3.47;;;15.80;99.90;;;;;;493268;241;28676;-68
2022/07/29 05:04:45;;;;;;;3.00;2.70;;;15.80;99.90;;;;;;493248;241;28706;-70
2022/07/29 05:06:46;;;;;;;3.00;2.80;;;15.70;99.90;;;;;;493219;241;28770;-68
2022/07/29 05:08:47;;;;;;;2.80;2.60;;;15.80;99.90;;;;;;493254;241;29212;-68
2022/07/29 05:10:48;;;;;;;2.80;2.50;;;15.90;99.90;;;;;;493309;241;29343;-71
2022/07/29 05:12:50;;;;;;;3.30;3.00;;;15.90;99.90;;;;;;493282;241;29143;-68
2022/07/29 05:14:51;;;;;;;3.20;3.00;;;15.90;99.90;;;;;;493274;241;28838;-70
2022/07/29 05:16:56;;;;;;;3.17;2.87;;;15.90;99.90;;;;;;493199;241;28664;-70
2022/07/29 05:18:53;;;;;;;3.30;3.10;;;15.90;99.90;;;;;;492993;241;28661;-68
2022/07/29 05:20:55;;;;;;;3.50;3.20;;;15.80;99.90;;;;;;493271;241;28723;-71
2022/07/29 05:22:56;;;;;;;3.10;2.90;;;15.70;99.90;;;;;;493234;241;28654;-68
2022/07/29 05:24:57;;;;;;;3.10;2.90;;;15.60;99.90;;;;;;493244;241;28715;-68
2022/07/29 05:26:58;;;;;;;3.17;2.97;;;15.60;99.90;;;;;;493272;241;28699;-68
2022/07/29 05:29:00;;;;;;;3.40;3.10;;;15.70;99.90;;;;;;493268;241;28742;-68
2022/07/29 05:31:01;;;;;;;2.83;2.70;;;15.80;99.90;;;;;;493263;241;28822;-70
2022/07/29 05:33:02;;;;;;;3.20;2.93;;;16.00;99.90;;;;;;493239;241;29124;-68
2022/07/29 05:35:03;;;;;;;3.50;3.20;;;16.00;99.90;;;;;;493108;241;29536;-68
2022/07/29 05:37:05;;;;;;;3.07;2.87;;;16.00;99.90;;;;;;493238;241;29365;-68
2022/07/29 05:39:06;;;;;;;3.40;3.10;;;16.10;99.90;;;;;;493257;241;29430;-68
2022/07/29 05:41:07;;;;;;;3.10;2.90;;;16.20;99.90;;;;;;493245;241;28745;-69
2022/07/29 05:43:08;;;;;;;3.23;3.03;;;16.20;99.90;;;;;;493141;241;28752;-68
2022/07/29 05:45:10;;;;;;;3.47;3.20;;;16.20;99.90;;;;;;493203;241;28784;-68
2022/07/29 05:47:11;;;;;;;3.37;3.17;;;16.30;99.90;;;;;;493223;241;28750;-70
2022/07/29 05:49:12;;;;;;;3.33;2.93;;;16.40;99.90;;;;;;493162;241;28669;-69
2022/07/29 05:51:13;;;;;;;4.63;2.80;;;16.50;99.90;;;;;;493233;241;28703;-70
2022/07/29 05:53:15;;;;;;;3.10;2.90;;;16.60;99.90;;;;;;493227;241;28752;-69
2022/07/29 05:55:16;;;;;;;3.47;3.10;;;16.80;99.90;;;;;;493168;241;28732;-70
2022/07/29 05:57:17;;;;;;;8.03;3.47;;;16.90;99.90;;;;;;493169;241;29292;-71
2022/07/29 05:59:18;;;;;;;3.20;2.97;;;16.90;99.90;;;;;;493271;241;29199;-68
2022/07/29 06:01:20;;;;;;;2.87;2.67;;;17.00;99.90;;;;;;493277;241;29168;-70
2022/07/29 06:03:21;;;;;;;3.80;3.50;;;17.00;99.90;;;;;;493258;241;29174;-69
2022/07/29 06:05:22;;;;;;;2.90;2.70;;;17.10;99.90;;;;;;493233;241;28708;-69
2022/07/29 06:07:23;;;;;;;2.90;2.70;;;17.10;99.90;;;;;;493222;241;28876;-70
2022/07/29 06:09:25;;;;;;;3.30;3.10;;;17.20;99.90;;;;;;493270;241;28672;-69
2022/07/29 06:11:26;;;;;;;3.27;2.97;;;17.30;99.90;;;;;;493246;241;28724;-70
2022/07/29 06:13:27;;;;;;;2.93;2.73;;;17.40;99.90;;;;;;493262;241;28736;-69
2022/07/29 06:15:28;;;;;;;2.80;2.70;;;17.40;99.90;;;;;;493264;241;29144;-70
2022/07/29 06:17:30;;;;;;;4.93;3.03;;;17.40;99.90;;;;;;493253;241;29364;-70
2022/07/29 06:19:31;;;;;;;2.87;2.60;;;17.50;99.90;;;;;;493278;241;28714;-70
2022/07/29 06:21:33;;;;;;;3.00;2.80;;;17.60;99.90;;;;;;493266;241;28700;-70
2022/07/29 06:23:34;;;;;;;3.60;3.10;;;17.70;99.90;;;;;;493270;241;28763;-68
2022/07/29 06:25:36;;;;;;;2.90;2.60;;;17.70;99.90;;;;;;493253;241;28772;-70
2022/07/29 06:27:37;;;;;;;3.07;2.87;;;17.70;99.90;;;;;;493180;241;28796;-72
2022/07/29 06:29:39;;;;;;;2.87;2.67;;;17.80;99.90;;;;;;493228;241;28808;-71
2022/07/29 06:31:40;;;;;;;2.50;2.40;;;17.80;99.90;;;;;;493269;241;28673;-69
2022/07/29 06:33:41;;;;;;;2.50;2.40;;;17.80;99.90;;;;;;493260;241;29186;-70
2022/07/29 06:35:43;;;;;;;2.97;2.67;;;17.80;99.90;;;;;;493131;241;30024;-69
2022/07/29 06:37:43;;;;;;;2.90;2.67;;;17.90;99.90;;;;;;493213;241;29135;-68
2022/07/29 06:39:45;;;;;;;2.93;2.80;;;18.00;99.90;;;;;;493263;241;29180;-71
2022/07/29 06:41:46;;;;;;;3.00;2.80;;;18.00;99.90;;;;;;493259;241;28676;-68
2022/07/29 06:43:47;;;;;;;3.07;2.87;;;18.10;99.90;;;;;;493260;241;28708;-69
2022/07/29 06:45:48;;;;;;;2.70;2.50;;;18.10;99.90;;;;;;493269;241;28668;-69
2022/07/29 06:47:50;;;;;;;2.60;2.50;;;18.10;99.90;;;;;;493238;241;28668;-69
2022/07/29 06:49:51;;;;;;;2.63;2.50;;;18.20;99.90;;;;;;493300;241;28724;-72
2022/07/29 06:51:52;;;;;;;2.70;2.50;;;18.30;99.90;;;;;;493282;241;28751;-68
2022/07/29 06:53:53;;;;;;;3.00;2.80;;;18.50;99.90;;;;;;493273;241;28739;-69
2022/07/29 06:55:55;;;;;;;2.80;2.60;;;18.60;99.90;;;;;;493278;241;28810;-69
2022/07/29 06:57:56;;;;;;;2.80;2.60;;;18.70;99.90;;;;;;493250;241;29143;-69
2022/07/29 06:59:57;;;;;;;2.40;2.30;;;18.70;99.90;;;;;;493292;241;29203;-72
2022/07/29 07:01:58;;;;;;;2.60;2.50;;;18.70;99.90;;;;;;493255;241;29200;-69
2022/07/29 07:04:00;;;;;;;2.80;2.43;;;18.70;99.90;;;;;;493232;241;29278;-70
2022/07/29 07:06:01;;;;;;;3.60;2.33;;;18.70;99.90;;;;;;492462;241;28712;-76
2022/07/29 07:08:02;;;;;;;3.20;2.10;;;18.70;99.90;;;;;;491837;241;28842;-70
2022/07/29 07:10:03;;;;;;;2.20;2.10;;;18.70;99.90;;;;;;492549;241;28720;-73
2022/07/29 07:12:05;;;;;;;2.30;2.20;;;18.70;99.90;;;;;;493175;241;28665;-69
2022/07/29 07:14:06;;;;;;;2.57;2.37;;;18.70;99.90;;;;;;493227;241;28762;-69
2022/07/29 07:16:07;;;;;;;2.57;2.37;;;18.80;99.90;;;;;;493163;241;28735;-69
2022/07/29 07:18:08;;;;;;;2.30;2.20;;;18.90;99.90;;;;;;493309;241;28778;-69
2022/07/29 07:20:10;;;;;;;2.23;2.13;;;19.00;99.90;;;;;;493284;241;28786;-70
2022/07/29 07:22:11;;;;;;;2.67;2.47;;;19.10;99.90;;;;;;493284;241;28793;-68
2022/07/29 07:24:12;;;;;;;2.83;2.63;;;19.30;99.90;;;;;;493256;241;29186;-70
2022/07/29 07:26:13;;;;;;;2.30;2.20;;;19.50;99.90;;;;;;493182;241;29897;-69
2022/07/29 07:28:15;;;;;;;4.43;2.50;;;19.70;99.90;;;;;;493287;241;29136;-69
2022/07/29 07:30:16;;;;;;;3.00;2.80;;;19.90;99.90;;;;;;493292;241;28791;-71
2022/07/29 07:32:17;;;;;;;3.13;2.80;;;20.10;99.90;;;;;;493271;241;28673;-69
2022/07/29 07:34:18;;;;;;;3.17;2.87;;;20.20;99.90;;;;;;493279;241;28707;-69
2022/07/29 07:36:20;;;;;;;3.53;3.23;;;20.40;99.90;;;;;;493071;241;28707;-68
2022/07/29 07:38:21;;;;;;;3.20;3.00;;;20.50;99.90;;;;;;493301;241;28722;-70
2022/07/29 07:40:22;;;;;;;3.50;2.90;;;20.60;99.90;;;;;;493261;241;28739;-72
2022/07/29 07:42:23;;;;;;;2.70;2.50;;;20.70;99.90;;;;;;493303;241;28747;-69
2022/07/29 07:44:25;;;;;;;2.70;2.50;;;20.90;99.90;;;;;;493291;241;28780;-70
2022/07/29 07:46:26;;;;;;;2.97;2.77;;;21.00;99.90;;;;;;493181;241;28704;-69
2022/07/29 07:48:27;;;;;;;2.97;2.77;;;21.10;99.90;;;;;;493249;241;29179;-70
2022/07/29 07:50:28;;;;;;;3.27;2.80;;;21.20;99.90;;;;;;493260;241;29256;-72
2022/07/29 07:52:30;;;;;;;2.90;2.70;;;21.30;99.90;;;;;;493290;241;29137;-69
2022/07/29 07:54:31;;;;;;;3.20;2.80;;;21.40;99.90;;;;;;493274;241;28803;-69
2022/07/29 07:56:32;;;;;;;2.97;2.70;;;21.30;99.90;;;;;;493190;241;28657;-69
2022/07/29 07:58:35;;;;;;;4.13;2.90;;;21.30;99.90;;;;;;493292;241;28673;-69
2022/07/29 08:00:35;;;;;;;4.20;2.80;;;21.40;99.90;;;;;;493230;241;28700;-72
2022/07/29 08:02:36;;;;;;;3.27;3.07;;;21.30;99.90;;;;;;493258;241;28665;-69
2022/07/29 08:04:40;;;;;;;3.57;3.27;;;21.20;99.90;;;;;;493274;241;28739;-74
2022/07/29 08:06:38;;;;;;;3.23;2.93;;;21.00;99.90;;;;;;493023;241;28824;-69
2022/07/29 08:08:40;;;;;;;2.90;2.70;;;20.90;99.90;;;;;;493219;241;28681;-69
2022/07/29 08:10:53;;;;;;;2.80;2.60;;;20.80;99.90;;;;;;493271;241;29253;-71
2022/07/29 08:12:54;;;;;;;3.37;3.17;;;20.90;99.90;;;;;;493304;241;28668;-69
2022/07/29 08:14:56;;;;;;;3.17;2.93;;;20.90;99.90;;;;;;493294;241;28808;-70
2022/07/29 08:16:57;;;;;;;3.50;3.13;;;20.90;99.90;;;;;;493197;241;28664;-69
2022/07/29 08:18:58;;;;;;;3.60;3.30;;;20.90;99.90;;;;;;493305;241;28682;-69
2022/07/29 08:20:59;;;;;;;2.90;2.70;;;20.90;99.90;;;;;;493291;241;28725;-72
2022/07/29 08:23:01;;;;;;;3.10;2.90;;;20.80;99.90;;;;;;493295;241;28794;-69
2022/07/29 08:25:02;;;;;;;3.00;2.80;;;20.80;99.90;;;;;;493277;241;28732;-70
2022/07/29 08:27:03;;;;;;;3.50;3.20;;;20.70;99.90;;;;;;493211;241;28775;-69
2022/07/29 08:29:04;;;;;;;5.50;2.80;;;20.70;99.90;;;;;;493286;241;29233;-69
2022/07/29 08:31:06;;;;;;;3.50;3.20;;;20.80;99.90;;;;;;493284;241;29360;-72
2022/07/29 08:33:07;;;;;;;3.30;3.00;;;20.90;99.90;;;;;;493292;241;29127;-69
2022/07/29 08:35:08;;;;;;;2.93;2.60;;;21.10;99.90;;;;;;493212;241;28771;-70
2022/07/29 08:37:09;;;;;;;4.20;2.97;;;21.20;99.90;;;;;;493215;241;28747;-68
2022/07/29 08:39:11;;;;;;;2.97;2.77;;;21.20;99.90;;;;;;493272;241;28702;-69
2022/07/29 08:41:12;;;;;;;2.77;2.57;;;21.30;99.90;;;;;;493294;241;28740;-72
2022/07/29 08:43:13;;;;;;;3.03;2.83;;;21.30;99.90;;;;;;493286;241;28676;-70
2022/07/29 08:45:14;;;;;;;3.67;3.33;;;21.40;99.90;;;;;;493272;241;28712;-71
2022/07/29 08:47:16;;;;;;;2.87;2.60;;;21.50;99.90;;;;;;493203;241;28748;-69
2022/07/29 08:49:17;;;;;;;3.00;2.80;;;21.40;99.90;;;;;;493257;241;28789;-69
2022/07/29 08:51:18;;;;;;;3.23;2.97;;;21.40;99.90;;;;;;493267;241;28858;-72
2022/07/29 08:53:19;;;;;;;3.00;2.80;;;21.40;99.90;;;;;;493296;241;29141;-74
2022/07/29 08:55:21;;;;;;;2.77;2.57;;;21.50;99.90;;;;;;493290;241;29192;-71
2022/07/29 08:57:22;;;;;;;3.27;2.97;;;21.80;99.90;;;;;;493226;241;29193;-70
2022/07/29 08:59:23;;;;;;;2.90;2.70;;;22.10;99.90;;;;;;493279;241;28731;-69
2022/07/29 09:01:24;;;;;;;2.80;2.60;;;22.40;99.90;;;;;;493290;241;28796;-72
2022/07/29 09:03:26;;;;;;;5.10;3.30;;;22.60;99.90;;;;;;493293;241;28755;-69
2022/07/29 09:05:27;;;;;;;3.57;3.23;;;22.80;99.90;;;;;;493282;241;28777;-71
2022/07/29 09:07:28;;;;;;;3.50;3.20;;;22.90;99.90;;;;;;493224;241;28773;-70
2022/07/29 09:09:29;;;;;;;4.20;2.97;;;22.80;99.90;;;;;;493247;241;28831;-70
2022/07/29 09:11:31;;;;;;;3.70;3.37;;;22.70;99.90;;;;;;493287;241;28700;-72
2022/07/29 09:13:32;;;;;;;3.93;3.17;;;22.60;99.90;;;;;;493276;241;28737;-69
2022/07/29 09:15:33;;;;;;;3.03;2.83;;;22.50;99.90;;;;;;493274;241;28718;-70
2022/07/29 09:17:34;;;;;;;6.13;3.17;;;22.50;99.90;;;;;;493223;241;29162;-70
2022/07/29 09:19:36;;;;;;;2.90;2.70;;;22.40;99.90;;;;;;493266;241;29192;-69
2022/07/29 09:23:56;;;;;;;3.90;3.20;;;22.40;99.90;;;;;;493294;241;29228;-69
2022/07/29 09:25:58;;;;;;;3.80;3.20;;;22.60;99.90;;;;;;493290;241;29191;-71
2022/07/29 09:28:00;;;;;;;3.22;2.92;;;;;;;;;;492409;241;47298;-69
2022/07/29 09:30:01;;;;;;;3.10;2.90;;;22.50;99.90;;;;;;493328;240;26478;-72
2022/07/29 09:32:03;;;;;;;3.27;3.00;;;22.80;99.90;;;;;;493245;241;28657;-69
2022/07/29 09:34:04;;;;;;;3.23;2.93;;;22.90;99.90;;;;;;493296;241;28736;-71
2022/07/29 09:36:05;;;;;;;3.43;2.77;;;23.00;99.90;;;;;;493151;241;29253;-70
2022/07/29 09:38:06;;;;;;;3.07;2.87;;;23.20;99.90;;;;;;493270;241;29185;-70
2022/07/29 09:40:08;;;;;;;2.80;2.60;;;23.30;99.90;;;;;;493274;241;29194;-72
2022/07/29 09:42:09;;;;;;;3.30;3.00;;;23.40;99.90;;;;;;493296;241;28676;-69
2022/07/29 09:44:10;;;;;;;2.77;2.57;;;23.50;99.90;;;;;;493282;241;28700;-70
2022/07/29 09:46:11;;;;;;;6.27;3.13;;;23.60;99.90;;;;;;493203;241;28805;-69
2022/07/29 09:48:13;;;;;;;3.20;3.00;;;23.70;99.90;;;;;;493267;241;28784;-70
2022/07/29 09:50:14;;;;;;;4.57;3.30;;;23.70;99.90;;;;;;493275;241;29075;-72
2022/07/29 09:52:15;;;;;;;3.77;3.33;;;23.80;99.90;;;;;;493286;241;28675;-70
2022/07/29 09:54:16;;;;;;;2.87;2.60;;;23.80;99.90;;;;;;493259;241;28717;-70
2022/07/29 09:56:18;;;;;;;4.50;3.27;;;23.70;99.90;;;;;;493207;241;29166;-69
2022/07/29 09:58:19;;;;;;;3.40;2.87;;;23.70;99.90;;;;;;493249;241;29298;-70
2022/07/29 10:00:22;;;;;;;3.03;2.83;;;23.70;99.90;;;;;;493276;241;29257;-75
2022/07/29 10:02:21;;;;;;;3.53;3.23;;;23.70;99.90;;;;;;493112;241;29304;-69
2022/07/29 10:04:23;;;;;;;3.37;3.07;;;23.70;99.90;;;;;;493250;241;28804;-71
2022/07/29 10:06:24;;;;;;;2.83;2.63;;;23.60;99.90;;;;;;493227;241;28744;-69
2022/07/29 10:08:26;;;;;;;2.80;2.60;;;23.60;99.90;;;;;;493247;241;28713;-70
2022/07/29 10:10:26;;;;;;;3.00;2.80;;;23.60;99.90;;;;;;493230;241;29106;-69
2022/07/29 10:12:28;;;;;;;2.60;2.40;;;23.50;99.90;;;;;;493289;241;28677;-70
2022/07/29 10:14:29;;;;;;;2.93;2.73;;;23.50;99.90;;;;;;493277;241;28731;-71
2022/07/29 10:16:32;;;;;;;3.10;2.60;;;23.40;99.90;;;;;;493222;241;28762;-70
2022/07/29 10:18:31;;;;;;;2.80;2.60;;;23.30;99.90;;;;;;493166;241;28715;-70
2022/07/29 10:20:33;;;;;;;3.00;2.80;;;23.30;99.90;;;;;;493293;241;30201;-69
2022/07/29 10:22:34;;;;;;;2.93;2.73;;;23.20;99.90;;;;;;493259;241;29135;-70
2022/07/29 10:24:35;;;;;;;2.83;2.63;;;23.30;99.90;;;;;;493291;241;29274;-70
2022/07/29 10:26:39;;;;;;;2.50;2.30;;;23.30;99.90;;;;;;493218;241;29122;-69
2022/07/29 10:28:38;;;;;;;3.40;3.10;;;23.40;99.90;;;;;;493095;241;28715;-70
2022/07/29 10:30:39;;;;;;;2.77;2.57;;;23.50;99.90;;;;;;493264;241;28684;-69
2022/07/29 10:32:40;;;;;;;3.20;2.90;;;23.60;99.90;;;;;;493260;241;28685;-70
2022/07/29 10:34:41;;;;;;;2.87;2.67;;;23.70;99.90;;;;;;493264;241;28802;-71